Time;durP1;ratioP1;P1;durP2;ratioP2;P2;SDS_P1;SDS_P2;PMS_P1;PMS_P2;Temp;Humidity;BMP_temperature;BMP_pressure;BME280_temperature;BME280_humidity;BME280_pressure;Samples;Min_cycle;Max_cycle;Signal;HPM_P1;HPM_P2
2022/07/07 00:04:02;;;;;;;29.92;19.17;;;;;;;15.58;100.00;101752.91;10352985;28;20043;-66
2022/07/07 00:09:03;;;;;;;32.08;19.55;;;;;;;15.61;100.00;101753.22;10335028;28;20042;-65
2022/07/07 00:14:07;;;;;;;33.47;19.23;;;;;;;15.60;100.00;101742.38;10365748;28;20041;-66
2022/07/07 00:19:07;;;;;;;31.73;18.30;;;;;;;15.60;100.00;101736.81;10333339;28;20057;-66
2022/07/07 00:24:08;;;;;;;31.00;17.58;;;;;;;15.60;100.00;101725.72;10332790;28;20100;-65
2022/07/07 00:29:09;;;;;;;28.45;17.17;;;;;;;15.60;100.00;101717.38;10335159;28;20077;-66
2022/07/07 00:34:09;;;;;;;26.58;15.50;;;;;;;15.59;100.00;101707.41;10377988;28;20097;-66
2022/07/07 00:39:10;;;;;;;25.45;14.25;;;;;;;15.57;100.00;101698.50;10333735;28;20057;-65
2022/07/07 00:44:12;;;;;;;21.23;13.40;;;;;;;15.56;100.00;101678.22;10364329;28;20121;-66
2022/07/07 00:49:12;;;;;;;21.25;12.55;;;;;;;15.58;100.00;101670.47;10356611;28;20046;-66
2022/07/07 00:54:13;;;;;;;20.92;13.57;;;;;;;15.60;100.00;101656.31;10357299;28;20035;-66
2022/07/07 00:59:13;;;;;;;22.35;14.43;;;;;;;15.60;100.00;101648.81;10325737;28;20034;-66
2022/07/07 01:04:14;;;;;;;21.02;14.35;;;;;;;15.62;100.00;101651.34;10357725;28;20041;-65
2022/07/07 01:09:14;;;;;;;24.92;15.13;;;;;;;15.63;100.00;101641.91;10367143;28;20049;-66
2022/07/07 01:14:15;;;;;;;24.13;15.18;;;;;;;15.60;100.00;101636.91;10347945;28;20045;-65
2022/07/07 01:19:16;;;;;;;25.60;13.85;;;;;;;15.61;100.00;101641.34;10365034;28;20560;-66
2022/07/07 01:24:16;;;;;;;21.73;14.57;;;;;;;15.60;100.00;101637.72;10364962;28;20034;-66
2022/07/07 01:29:17;;;;;;;22.50;13.40;;;;;;;15.58;100.00;101634.38;10380386;28;20068;-66
2022/07/07 01:34:17;;;;;;;25.98;14.48;;;;;;;15.55;100.00;101646.03;10366632;28;20089;-67
2022/07/07 01:39:18;;;;;;;33.63;13.85;;;;;;;15.53;100.00;101642.69;10342108;28;20046;-67
2022/07/07 01:44:18;;;;;;;13.43;8.60;;;;;;;15.46;100.00;101637.38;10355725;28;20073;-67
2022/07/07 01:49:19;;;;;;;11.32;6.90;;;;;;;15.43;100.00;101637.91;10325775;28;20038;-66
2022/07/07 01:54:19;;;;;;;13.25;7.13;;;;;;;15.39;100.00;101633.19;10356455;28;20050;-66
2022/07/07 01:59:20;;;;;;;20.15;8.20;;;;;;;15.34;100.00;101622.88;10328971;28;20038;-66
2022/07/07 02:04:20;;;;;;;11.70;7.60;;;;;;;15.32;100.00;101619.53;10379396;28;20034;-66
2022/07/07 02:09:21;;;;;;;12.77;7.32;;;;;;;15.29;100.00;101614.53;10366201;28;20034;-67
2022/07/07 02:14:21;;;;;;;15.43;6.78;;;;;;;15.26;100.00;101606.75;10362760;28;20386;-67
2022/07/07 02:19:22;;;;;;;9.88;6.68;;;;;;;15.26;100.00;101598.44;10361938;28;20086;-66
2022/07/07 02:24:22;;;;;;;11.40;7.05;;;;;;;15.22;100.00;101589.78;10361059;28;20058;-66
2022/07/07 02:29:23;;;;;;;11.80;7.57;;;;;;;15.26;100.00;101584.56;10377463;28;20077;-66
2022/07/07 02:34:24;;;;;;;14.55;8.57;;;;;;;15.22;100.00;101569.56;10395056;28;20056;-66
2022/07/07 02:39:24;;;;;;;13.60;9.10;;;;;;;15.25;100.00;101585.66;10369545;28;20037;-66
2022/07/07 02:44:25;;;;;;;18.25;11.40;;;;;;;15.29;100.00;101581.22;10344286;28;20065;-66
2022/07/07 02:49:25;;;;;;;18.05;10.13;;;;;;;15.30;100.00;101588.47;10393298;28;20034;-66
2022/07/07 02:54:26;;;;;;;17.00;11.40;;;;;;;15.25;100.00;101580.91;10363021;28;20038;-67
2022/07/07 02:59:26;;;;;;;16.00;10.23;;;;;;;15.26;100.00;101567.91;10362660;28;20034;-68
2022/07/07 03:04:27;;;;;;;22.75;12.05;;;;;;;15.26;100.00;101577.06;10345817;28;20117;-67
2022/07/07 03:09:27;;;;;;;21.85;11.90;;;;;;;15.25;100.00;101567.06;10344851;28;20062;-66
2022/07/07 03:14:28;;;;;;;21.65;12.13;;;;;;;15.23;100.00;101572.03;10336756;28;20039;-67
2022/07/07 03:19:28;;;;;;;19.98;10.88;;;;;;;15.21;100.00;101567.88;10321760;28;20035;-66
2022/07/07 03:24:31;;;;;;;25.35;10.95;;;;;;;15.20;100.00;101564.25;10333039;28;20529;-66
2022/07/07 03:29:31;;;;;;;17.33;10.73;;;;;;;15.21;100.00;101562.31;10378952;28;20041;-67
2022/07/07 03:34:32;;;;;;;19.45;8.32;;;;;;;15.12;100.00;101546.19;10318251;28;20046;-66
2022/07/07 03:39:32;;;;;;;23.83;11.68;;;;;;;15.18;100.00;101562.88;10322558;28;20170;-66
2022/07/07 03:44:33;;;;;;;20.27;10.00;;;;;;;15.17;100.00;101558.41;10352567;28;20065;-66
2022/07/07 03:49:33;;;;;;;24.50;8.50;;;;;;;15.14;100.00;101571.72;10352520;28;20035;-66
2022/07/07 03:54:33;;;;;;;20.00;8.25;;;;;;;15.12;100.00;101576.69;10312704;28;20073;-67
2022/07/07 03:59:34;;;;;;;14.73;6.00;;;;;;;15.11;100.00;101580.59;10311815;28;20075;-66
2022/07/07 04:04:34;;;;;;;8.70;3.65;;;;;;;14.92;100.00;101573.78;10323467;28;20046;-65
2022/07/07 04:09:35;;;;;;;14.05;4.57;;;;;;;14.87;100.00;101576.53;10322281;28;20047;-66
2022/07/07 04:14:35;;;;;;;12.02;2.20;;;;;;;14.73;100.00;101576.97;10312502;28;20045;-66
2022/07/07 04:19:36;;;;;;;9.55;2.08;;;;;;;14.79;100.00;101577.84;10350933;28;20034;-66
2022/07/07 04:24:36;;;;;;;14.23;3.20;;;;;;;14.74;100.00;101586.16;10338625;28;20037;-67
2022/07/07 04:29:37;;;;;;;13.57;2.03;;;;;;;14.73;100.00;101590.81;10366792;28;20034;-67
2022/07/07 04:34:37;;;;;;;10.05;2.30;;;;;;;14.66;100.00;101601.31;10365427;28;20552;-65
2022/07/07 04:39:38;;;;;;;10.02;1.45;;;;;;;14.60;100.00;101607.91;10350876;28;20124;-66
2022/07/07 04:44:38;;;;;;;11.60;1.80;;;;;;;14.62;100.00;101614.03;10367635;28;20425;-67
2022/07/07 04:49:39;;;;;;;8.15;1.67;;;;;;;14.56;100.00;101623.38;10399490;28;20445;-67
2022/07/07 04:54:39;;;;;;;21.63;2.13;;;;;;;14.51;100.00;101620.53;10364887;28;20410;-68
2022/07/07 04:59:40;;;;;;;6.70;1.77;;;;;;;14.46;100.00;101637.13;10330554;28;20380;-67
2022/07/07 05:04:41;;;;;;;19.38;2.58;;;;;;;14.36;100.00;101639.78;10355841;28;20038;-67
2022/07/07 05:09:41;;;;;;;14.15;2.33;;;;;;;14.38;100.00;101648.66;10341686;28;20031;-67
2022/07/07 05:14:43;;;;;;;14.27;3.03;;;;;;;14.24;100.00;101651.84;10365428;28;20046;-65
2022/07/07 05:19:44;;;;;;;17.90;2.85;;;;;;;14.08;100.00;101667.44;10387428;28;20413;-66
2022/07/07 05:24:44;;;;;;;13.75;2.70;;;;;;;14.08;100.00;101669.41;10341267;28;22367;-68
2022/07/07 05:29:44;;;;;;;15.18;3.35;;;;;;;14.11;100.00;101674.41;10353971;28;20038;-67
2022/07/07 05:34:45;;;;;;;20.40;3.80;;;;;;;14.11;100.00;101682.72;10341281;28;20043;-68
2022/07/07 05:39:46;;;;;;;15.30;3.50;;;;;;;14.26;100.00;101693.97;10326716;28;20097;-67
2022/07/07 05:44:46;;;;;;;14.38;4.18;;;;;;;14.28;100.00;101704.78;10325920;28;20034;-67
2022/07/07 05:49:47;;;;;;;26.60;4.45;;;;;;;14.20;100.00;101708.88;10340064;28;20061;-67
2022/07/07 05:54:47;;;;;;;23.02;4.20;;;;;;;14.18;100.00;101711.06;10325938;28;20042;-68
2022/07/07 05:59:47;;;;;;;24.55;4.35;;;;;;;14.18;100.00;101721.28;10359994;28;20061;-68
2022/07/07 06:04:48;;;;;;;16.15;3.30;;;;;;;14.18;100.00;101733.22;10365975;28;20037;-67
2022/07/07 06:09:48;;;;;;;16.05;3.38;;;;;;;13.48;100.00;101635.13;10365611;28;20114;-65
2022/07/07 06:14:49;;;;;;;17.85;3.50;;;;;;;14.18;100.00;101738.75;10365541;28;20038;-68
2022/07/07 06:19:49;;;;;;;26.42;4.05;;;;;;;14.18;100.00;101752.59;10363021;28;20046;-68
2022/07/07 06:24:50;;;;;;;20.08;4.50;;;;;;;14.29;100.00;101734.16;10363616;28;20045;-67
2022/07/07 06:29:50;;;;;;;20.00;3.55;;;;;;;14.42;100.00;101755.91;10375253;28;20034;-66
2022/07/07 06:34:51;;;;;;;25.85;5.50;;;;;;;14.50;100.00;101768.50;10338450;28;20038;-67
2022/07/07 06:39:51;;;;;;;19.02;3.75;;;;;;;14.66;100.00;101778.69;10355076;28;20034;-67
2022/07/07 06:44:52;;;;;;;18.33;2.92;;;;;;;14.64;100.00;101761.47;10323117;28;20037;-67
2022/07/07 06:49:52;;;;;;;13.45;3.40;;;;;;;14.68;100.00;101770.94;10323478;28;20034;-66
2022/07/07 06:54:52;;;;;;;9.85;2.60;;;;;;;14.67;100.00;101783.13;10353777;28;20030;-67
2022/07/07 06:59:53;;;;;;;6.47;2.08;;;;;;;14.59;100.00;101782.75;10336706;28;20043;-66
2022/07/07 07:04:54;;;;;;;13.80;2.38;;;;;;;14.76;100.00;101777.97;10324128;28;20042;-66
2022/07/07 07:09:54;;;;;;;9.13;2.30;;;;;;;14.93;100.00;101788.97;10323497;28;20057;-67
2022/07/07 07:14:55;;;;;;;11.73;2.15;;;;;;;15.08;100.00;101786.31;10353733;28;20031;-66
2022/07/07 07:19:56;;;;;;;14.57;2.47;;;;;;;15.30;100.00;101774.34;10322858;28;20073;-66
2022/07/07 07:24:56;;;;;;;12.45;2.22;;;;;;;15.63;100.00;101786.25;10322161;28;20046;-66
2022/07/07 07:29:57;;;;;;;10.18;2.35;;;;;;;16.06;100.00;101790.75;10323294;28;20371;-65
2022/07/07 07:34:57;;;;;;;8.73;1.60;;;;;;;16.14;100.00;101786.59;10324073;28;20046;-68
2022/07/07 07:39:58;;;;;;;7.28;1.40;;;;;;;16.45;100.00;101786.75;10355074;28;20037;-67
2022/07/07 07:45:10;;;;;;;9.57;1.83;;;;;;;16.74;100.00;101799.09;10369182;28;20034;-67
2022/07/07 07:50:12;;;;;;;7.63;1.63;;;;;;;16.21;100.00;101809.44;10370898;28;20042;-66
2022/07/07 07:55:14;;;;;;;13.82;2.30;;;;;;;15.83;100.00;101814.16;10367421;28;20038;-66
2022/07/07 08:00:17;;;;;;;6.28;1.50;;;;;;;15.91;100.00;101833.13;10356022;28;20539;-66
2022/07/07 08:05:18;;;;;;;7.60;1.20;;;;;;;16.07;100.00;101825.72;10386390;28;20067;-68
2022/07/07 08:10:18;;;;;;;8.90;1.50;;;;;;;16.06;100.00;101826.84;10386462;28;20057;-67
2022/07/07 08:15:19;;;;;;;6.90;1.67;;;;;;;16.36;100.00;101832.84;10383219;28;20037;-66
2022/07/07 08:20:19;;;;;;;4.95;0.73;;;;;;;16.75;100.00;101828.56;10378685;28;20038;-67
2022/07/07 08:25:20;;;;;;;6.07;1.60;;;;;;;16.58;100.00;101846.56;10385485;28;20066;-68
2022/07/07 08:30:20;;;;;;;9.23;0.85;;;;;;;16.69;100.00;101860.25;10380250;28;20058;-67
2022/07/07 08:35:21;;;;;;;6.28;0.60;;;;;;;17.24;100.00;101857.09;10374347;28;20038;-67
2022/07/07 08:40:22;;;;;;;6.28;1.15;;;;;;;17.47;100.00;101859.38;10374798;28;20046;-66
2022/07/07 08:45:22;;;;;;;3.58;1.05;;;;;;;16.60;100.00;101870.22;10377077;28;20423;-66
2022/07/07 08:50:23;;;;;;;4.45;0.90;;;;;;;16.37;100.00;101884.53;10372026;28;20030;-67
2022/07/07 08:55:24;;;;;;;10.82;1.52;;;;;;;16.90;100.00;101885.38;10382255;28;20046;-65
2022/07/07 09:00:24;;;;;;;3.35;1.05;;;;;;;16.80;100.00;101904.78;10401323;28;20049;-67
2022/07/07 09:05:25;;;;;;;4.75;0.95;;;;;;;16.53;100.00;101906.56;10351276;28;20142;-67
2022/07/07 09:10:33;;;;;;;2.45;0.60;;;;;;;16.78;100.00;101905.03;10364873;28;20049;-67
2022/07/07 09:15:39;;;;;;;2.75;0.75;;;;;;;17.08;100.00;101909.94;10380768;28;20104;-66
2022/07/07 09:20:40;;;;;;;3.53;0.95;;;;;;;17.45;100.00;101903.34;10380985;28;20033;-66
2022/07/07 09:25:40;;;;;;;2.85;1.00;;;;;;;17.94;100.00;101921.50;10393868;28;20072;-66
2022/07/07 09:30:43;;;;;;;3.47;0.80;;;;;;;17.62;100.00;101928.16;10410126;28;20029;-66
2022/07/07 09:41:05;;;;;;;2.88;1.33;;;;;;;16.69;100.00;101940.88;10341850;28;20043;-66
2022/07/07 09:46:09;;;;;;;6.82;1.65;;;;;;;16.83;100.00;101949.59;10339033;28;20042;-66
2022/07/07 09:51:17;;;;;;;7.30;1.35;;;;;;;16.85;100.00;101968.81;10357131;28;20041;-66
2022/07/07 09:56:19;;;;;;;10.18;1.80;;;;;;;17.12;100.00;101975.06;10309604;28;20066;-68
2022/07/07 10:01:24;;;;;;;9.85;1.55;;;;;;;17.57;100.00;101977.41;10325193;28;20093;-66
2022/07/07 10:06:26;;;;;;;9.98;1.42;;;;;;;17.10;100.00;101987.56;10357615;28;20053;-66
2022/07/07 10:11:35;;;;;;;6.35;2.00;;;;;;;17.15;100.00;101996.75;10377318;28;20034;-65
2022/07/07 10:16:36;;;;;;;6.43;1.10;;;;;;;17.30;100.00;101998.78;10395506;28;20041;-65
2022/07/07 10:21:39;;;;;;;3.88;0.70;;;;;;;17.41;100.00;102015.53;10395761;28;20137;-64
2022/07/07 10:26:59;;;;;;;4.57;1.13;;;;;;;17.03;100.00;102035.13;10378540;28;20042;-67
2022/07/07 10:32:00;;;;;;;15.55;5.47;;;;;;;16.88;100.00;102040.56;10363000;28;20038;-65
2022/07/07 10:37:10;;;;;;;8.50;1.92;;;;;;;17.37;100.00;102054.19;10361848;28;20034;-66
2022/07/07 10:42:17;;;;;;;7.28;1.52;;;;;;;17.59;100.00;102051.25;10362773;28;20065;-66
2022/07/07 10:47:17;;;;;;;;;;;;;;;17.29;100.00;102080.59;10366687;28;20038;-66
2022/07/07 10:52:22;;;;;;;11.48;2.20;;;;;;;16.32;100.00;102080.69;10365392;28;19917;-66
2022/07/07 10:57:23;;;;;;;11.93;2.25;;;;;;;16.60;100.00;102092.63;10354981;28;20061;-66
2022/07/07 11:02:30;;;;;;;12.40;2.20;;;;;;;16.79;100.00;102092.22;10364119;28;20494;-68
2022/07/07 11:07:31;;;;;;;14.45;2.22;;;;;;;16.62;100.00;102109.88;10368130;28;20041;-66
2022/07/07 11:12:44;;;;;;;22.20;3.65;;;;;;;16.66;100.00;102126.84;10381715;28;20073;-66
2022/07/07 11:17:45;;;;;;;15.43;3.20;;;;;;;16.47;100.00;102132.81;10379899;28;20048;-65
2022/07/07 11:22:47;;;;;;;20.83;2.72;;;;;;;16.51;100.00;102138.69;10369689;28;20101;-66
2022/07/07 11:27:51;;;;;;;21.67;3.97;;;;;;;17.01;100.00;102145.84;10382044;28;20038;-66
2022/07/07 11:32:55;;;;;;;12.80;2.10;;;;;;;17.35;100.00;102153.84;10381047;28;20116;-66
2022/07/07 11:37:56;;;;;;;14.82;2.28;;;;;;;17.17;100.00;102140.38;10390913;28;20405;-65
2022/07/07 11:43:00;;;;;;;8.15;1.75;;;;;;;17.21;100.00;102150.69;10376659;28;20105;-66
2022/07/07 11:48:01;;;;;;;15.05;3.15;;;;;;;17.29;100.00;102169.66;10389368;28;21002;-66
2022/07/07 11:53:03;;;;;;;13.20;2.72;;;;;;;16.88;100.00;102208.28;10379554;28;20038;-67
2022/07/07 11:58:04;;;;;;;21.25;2.90;;;;;;;16.71;100.00;102202.00;10403150;28;20176;-66
2022/07/07 12:03:06;;;;;;;14.10;3.25;;;;;;;17.08;100.00;102185.38;10387446;28;20038;-67
2022/07/07 12:08:07;;;;;;;21.55;2.63;;;;;;;17.67;100.00;102195.53;10386965;28;20048;-66
2022/07/07 12:13:12;;;;;;;16.85;2.45;;;;;;;17.29;100.00;102196.66;10380653;28;20137;-66
2022/07/07 12:18:12;;;;;;;10.20;2.53;;;;;;;17.39;100.00;102213.44;10381414;28;20052;-66
2022/07/07 12:23:16;;;;;;;12.93;2.35;;;;;;;17.87;100.00;102200.38;10372169;28;20033;-66
2022/07/07 12:28:17;;;;;;;14.13;2.38;;;;;;;18.10;100.00;102189.88;10375471;28;20448;-65
2022/07/07 12:33:44;;;;;;;14.00;2.70;;;;;;;18.05;100.00;102209.38;10375583;28;20068;-65
2022/07/07 12:38:46;;;;;;;21.05;3.67;;;;;;;17.48;100.00;102220.16;10366010;28;20115;-65
2022/07/07 12:43:46;;;;;;;12.73;3.25;;;;;;;17.26;100.00;102237.00;10371468;28;20044;-65
2022/07/07 12:48:51;;;;;;;17.30;3.72;;;;;;;17.19;100.00;102230.00;10377300;28;20038;-65
2022/07/07 12:53:52;;;;;;;11.98;2.35;;;;;;;17.24;100.00;102246.72;10392552;28;20047;-65
2022/07/07 12:58:53;;;;;;;14.55;2.08;;;;;;;17.01;100.00;102257.13;10387226;28;20482;-66
2022/07/07 13:03:55;;;;;;;18.35;2.70;;;;;;;16.68;100.00;102274.81;10372250;28;20057;-64
2022/07/07 13:08:55;;;;;;;14.40;3.35;;;;;;;16.72;100.00;102282.38;10374170;28;20046;-65
2022/07/07 13:13:56;;;;;;;19.00;2.42;;;;;;;16.73;100.00;102281.28;10400105;28;20564;-65
2022/07/07 13:18:56;;;;;;;12.90;2.85;;;;;;;17.17;100.00;102283.13;10374665;28;20655;-66
2022/07/07 13:23:56;;;;;;;12.52;2.50;;;;;;;17.38;100.00;102286.09;10396885;28;20033;-65
2022/07/07 13:28:57;;;;;;;21.08;3.55;;;;;;;17.79;100.00;102292.78;10374196;28;20073;-65
2022/07/07 13:33:57;;;;;;;12.57;1.90;;;;;;;18.59;100.00;102275.91;10367441;28;20490;-64
2022/07/07 13:38:58;;;;;;;8.13;1.60;;;;;;;18.25;100.00;102284.72;10329511;28;20170;-66
2022/07/07 13:43:58;;;;;;;12.18;2.53;;;;;;;17.78;100.00;102301.41;10358760;28;20045;-66
2022/07/07 13:48:59;;;;;;;10.75;2.63;;;;;;;17.60;100.00;102302.69;10382106;28;20038;-65
2022/07/07 13:54:00;;;;;;;7.20;1.67;;;;;;;17.71;100.00;102302.50;10384254;28;20041;-63
2022/07/07 13:59:00;;;;;;;6.95;1.38;;;;;;;17.94;100.00;102308.78;10385193;28;20049;-65
2022/07/07 14:04:01;;;;;;;6.75;2.45;;;;;;;17.37;100.00;102343.72;10386288;28;20033;-65
2022/07/07 14:09:01;;;;;;;9.57;1.50;;;;;;;17.20;100.00;102341.06;10406863;28;20060;-65
2022/07/07 14:14:02;;;;;;;11.75;2.53;;;;;;;17.41;100.00;102346.81;10384807;28;20038;-65
2022/07/07 14:19:02;;;;;;;10.48;2.30;;;;;;;17.36;100.00;102336.44;10385373;28;20086;-66
2022/07/07 14:24:03;;;;;;;10.98;2.10;;;;;;;17.01;100.00;102362.84;10384216;28;20034;-66
2022/07/07 14:29:03;;;;;;;7.28;1.40;;;;;;;17.32;100.00;102343.66;10384632;28;20029;-68
2022/07/07 14:34:04;;;;;;;11.93;2.53;;;;;;;17.68;100.00;102339.22;10384653;28;20046;-64
2022/07/07 14:39:04;;;;;;;5.18;1.27;;;;;;;17.51;99.81;102344.13;10376348;28;20037;-65
2022/07/07 14:44:05;;;;;;;8.70;1.80;;;;;;;17.35;100.00;102351.47;10380935;28;20046;-63
2022/07/07 14:49:05;;;;;;;10.10;1.73;;;;;;;17.08;100.00;102382.94;10384208;28;20115;-66
2022/07/07 14:54:06;;;;;;;7.95;1.40;;;;;;;17.00;100.00;102372.28;10381284;28;20041;-65
2022/07/07 14:59:06;;;;;;;11.18;1.40;;;;;;;17.30;100.00;102377.34;10381530;28;20037;-66
2022/07/07 15:04:07;;;;;;;15.43;1.63;;;;;;;17.41;100.00;102375.47;10383013;28;21531;-65
2022/07/07 15:09:07;;;;;;;7.88;1.42;;;;;;;17.32;100.00;102404.88;10383567;28;20092;-66
2022/07/07 15:14:08;;;;;;;8.55;1.05;;;;;;;16.77;100.00;102389.22;10382079;28;20033;-65
2022/07/07 15:19:09;;;;;;;6.90;1.10;;;;;;;16.88;100.00;102394.66;10383310;28;20034;-64
2022/07/07 15:24:09;;;;;;;8.20;1.23;;;;;;;16.68;100.00;102402.72;10382016;28;20026;-64
2022/07/07 15:29:10;;;;;;;8.63;1.58;;;;;;;16.71;100.00;102430.88;10383403;28;20050;-65
2022/07/07 15:34:11;;;;;;;10.00;1.75;;;;;;;16.58;100.00;102425.69;10380814;28;20084;-62
2022/07/07 15:39:11;;;;;;;6.88;1.23;;;;;;;16.78;100.00;102438.19;10382643;28;20040;-64
2022/07/07 15:44:12;;;;;;;6.03;1.50;;;;;;;16.69;100.00;102426.66;10382372;28;20034;-65
2022/07/07 15:49:12;;;;;;;7.35;1.80;;;;;;;16.70;100.00;102440.31;10381112;28;20029;-64
2022/07/07 15:54:13;;;;;;;8.07;1.63;;;;;;;16.57;100.00;102451.81;10381264;28;20053;-65
2022/07/07 15:59:13;;;;;;;14.20;2.95;;;;;;;16.30;100.00;102452.53;10377402;28;20136;-65
2022/07/07 16:09:33;;;;;;;10.70;1.60;;;;;;;16.49;100.00;102452.25;10321156;28;20034;-66
2022/07/07 16:14:33;;;;;;;11.05;1.50;;;;;;;16.55;100.00;102448.44;10319981;28;20042;-65
2022/07/07 16:19:34;;;;;;;6.25;1.35;;;;;;;16.53;100.00;102445.91;10360166;28;20092;-65
2022/07/07 16:24:34;;;;;;;8.55;1.30;;;;;;;16.51;100.00;102444.47;10327998;28;20473;-66
2022/07/07 16:29:35;;;;;;;9.88;1.65;;;;;;;16.37;100.00;102445.94;10327586;28;20046;-66
2022/07/07 16:34:35;;;;;;;13.30;1.73;;;;;;;16.38;100.00;102447.63;10330111;28;20038;-64
2022/07/07 16:39:36;;;;;;;9.85;1.63;;;;;;;16.23;100.00;102443.53;10327572;28;20045;-65
2022/07/07 16:44:36;;;;;;;6.43;1.52;;;;;;;16.20;100.00;102471.81;10327489;28;20050;-66
2022/07/07 16:49:37;;;;;;;9.35;1.70;;;;;;;16.05;100.00;102482.69;10364650;28;20042;-65
2022/07/07 16:54:37;;;;;;;14.80;3.25;;;;;;;16.17;100.00;102469.56;10368704;28;20125;-63
2022/07/07 16:59:38;;;;;;;11.63;1.77;;;;;;;16.24;100.00;102474.94;10399330;28;20508;-65
2022/07/07 17:04:38;;;;;;;16.00;2.47;;;;;;;16.07;100.00;102486.88;10399441;28;20585;-65
2022/07/07 17:09:39;;;;;;;15.93;2.70;;;;;;;16.00;100.00;102488.13;10368367;28;20042;-65
2022/07/07 17:14:39;;;;;;;10.07;2.03;;;;;;;15.89;100.00;102495.47;10397447;28;20057;-65
2022/07/07 17:19:40;;;;;;;20.17;2.83;;;;;;;15.81;100.00;102493.09;10360777;28;20042;-65
2022/07/07 17:24:40;;;;;;;10.88;2.08;;;;;;;15.62;100.00;102514.66;10354044;28;20046;-65
2022/07/07 17:29:40;;;;;;;15.35;2.90;;;;;;;15.50;100.00;102510.00;10355511;28;20122;-65
2022/07/07 17:34:41;;;;;;;12.52;2.60;;;;;;;15.14;100.00;102512.03;10325860;28;20038;-65
2022/07/07 17:39:42;;;;;;;18.88;2.95;;;;;;;14.87;100.00;102522.00;10324811;28;20043;-65
2022/07/07 17:44:43;;;;;;;10.23;2.30;;;;;;;14.92;100.00;102519.31;10324433;28;20030;-65
2022/07/07 17:49:43;;;;;;;13.82;1.75;;;;;;;15.01;100.00;102512.31;10354885;28;20050;-65
2022/07/07 17:54:44;;;;;;;9.55;1.65;;;;;;;15.10;100.00;102516.38;10343064;28;20054;-67
2022/07/07 17:59:44;;;;;;;17.08;3.20;;;;;;;15.11;100.00;102507.00;10365210;28;20057;-65
2022/07/07 18:04:44;;;;;;;9.13;1.60;;;;;;;15.22;100.00;102519.13;10366375;28;20502;-65
2022/07/07 18:09:45;;;;;;;9.57;1.70;;;;;;;15.21;100.00;102527.69;10364990;28;20038;-65
2022/07/07 18:14:45;;;;;;;10.75;2.15;;;;;;;15.28;100.00;102545.06;10365667;28;20049;-66
2022/07/07 18:19:46;;;;;;;7.72;1.58;;;;;;;15.28;100.00;102550.63;10365079;28;20060;-65
2022/07/07 18:24:46;;;;;;;19.13;3.08;;;;;;;15.23;100.00;102547.72;10363920;28;20281;-64
2022/07/07 18:29:47;;;;;;;13.43;2.28;;;;;;;15.16;100.00;102556.19;10364633;28;20046;-65
2022/07/07 18:34:47;;;;;;;11.68;1.98;;;;;;;15.19;100.00;102558.44;10362428;28;20042;-66
2022/07/07 18:39:48;;;;;;;7.65;2.10;;;;;;;15.17;100.00;102554.25;10362388;28;20056;-65
2022/07/07 18:44:48;;;;;;;7.95;1.60;;;;;;;15.14;100.00;102561.97;10363936;28;20647;-64
2022/07/07 18:49:50;;;;;;;12.65;2.45;;;;;;;15.18;100.00;102578.16;10353476;28;20584;-65
2022/07/07 18:54:50;;;;;;;17.85;3.22;;;;;;;15.06;100.00;102592.84;10323160;28;20101;-65
2022/07/07 18:59:51;;;;;;;14.05;2.15;;;;;;;14.97;100.00;102597.09;10323466;28;20034;-65
2022/07/07 19:04:51;;;;;;;10.15;2.22;;;;;;;14.94;100.00;102605.88;10324443;28;20518;-65
2022/07/07 19:09:53;;;;;;;9.02;2.25;;;;;;;14.90;100.00;102604.69;10320230;28;20038;-65
2022/07/07 19:14:53;;;;;;;14.23;1.92;;;;;;;14.80;100.00;102604.44;10322898;28;20030;-65
2022/07/07 19:19:54;;;;;;;20.80;2.03;;;;;;;14.79;100.00;102611.91;10352635;28;20038;-65
2022/07/07 19:24:54;;;;;;;11.57;2.47;;;;;;;14.83;100.00;102620.59;10315281;28;20170;-62
2022/07/07 19:29:57;;;;;;;12.82;2.28;;;;;;;14.72;100.00;102602.88;10283174;28;20074;-64
2022/07/07 19:34:57;;;;;;;12.32;2.15;;;;;;;14.72;100.00;102617.59;10326719;28;20069;-66
2022/07/07 19:39:58;;;;;;;10.90;2.10;;;;;;;14.63;100.00;102616.22;10320235;28;20203;-65
2022/07/07 19:44:58;;;;;;;15.02;2.15;;;;;;;14.61;100.00;102628.66;10350910;28;20034;-66
2022/07/07 19:49:59;;;;;;;10.65;1.52;;;;;;;14.58;100.00;102634.69;10320698;28;20467;-64
2022/07/07 19:55:00;;;;;;;19.08;2.20;;;;;;;14.66;100.00;102656.50;10329101;28;20087;-65
2022/07/07 20:00:00;;;;;;;15.13;2.22;;;;;;;14.60;100.00;102661.06;10329700;28;20049;-64
2022/07/07 20:05:00;;;;;;;15.55;2.17;;;;;;;14.58;100.00;102663.25;10328653;28;20106;-64
2022/07/07 20:10:01;;;;;;;12.48;2.53;;;;;;;14.56;100.00;102668.19;10329264;28;20041;-65
2022/07/07 20:15:02;;;;;;;13.45;2.92;;;;;;;14.52;100.00;102666.94;10328037;28;20034;-65
2022/07/07 20:20:03;;;;;;;11.80;1.77;;;;;;;14.53;100.00;102668.59;10358143;28;20313;-65
2022/07/07 20:25:03;;;;;;;14.65;2.55;;;;;;;13.83;100.00;102588.88;10357943;28;20042;-65
2022/07/07 20:30:04;;;;;;;8.35;1.88;;;;;;;14.45;100.00;102691.09;10349779;28;20035;-65
2022/07/07 20:35:08;;;;;;;7.63;2.00;;;;;;;14.44;100.00;102690.28;10327760;28;20074;-64
2022/07/07 20:40:09;;;;;;;9.48;1.92;;;;;;;14.38;100.00;102698.69;10346262;28;20034;-65
2022/07/07 20:45:10;;;;;;;11.68;2.05;;;;;;;14.36;100.00;102700.84;10369128;28;20034;-65
2022/07/07 20:50:11;;;;;;;14.38;1.80;;;;;;;14.30;100.00;102714.59;10391932;28;20034;-65
2022/07/07 20:55:11;;;;;;;11.73;1.73;;;;;;;14.35;100.00;102718.56;10327494;28;20038;-64
2022/07/07 21:00:12;;;;;;;12.40;2.70;;;;;;;14.31;100.00;102723.72;10329638;28;20046;-63
2022/07/07 21:05:12;;;;;;;5.40;1.73;;;;;;;14.33;100.00;102727.09;10327671;28;20066;-64
2022/07/07 21:10:13;;;;;;;11.98;2.25;;;;;;;14.31;100.00;102732.88;10327189;28;20030;-63
2022/07/07 21:15:14;;;;;;;19.10;1.88;;;;;;;14.29;100.00;102731.44;10327697;28;20046;-63
2022/07/07 21:20:14;;;;;;;10.00;1.77;;;;;;;14.33;100.00;102739.03;10325914;28;20526;-64
2022/07/07 21:25:15;;;;;;;10.63;2.05;;;;;;;14.33;100.00;102741.81;10340677;28;20034;-64
2022/07/07 21:30:15;;;;;;;12.73;1.58;;;;;;;14.30;100.00;102745.06;10327118;28;20042;-64
2022/07/07 21:35:16;;;;;;;7.63;1.40;;;;;;;14.27;100.00;102759.34;10325238;28;20038;-65
2022/07/07 21:40:16;;;;;;;9.18;2.22;;;;;;;14.28;100.00;102762.97;10324565;28;20042;-64
2022/07/07 21:45:17;;;;;;;7.20;1.80;;;;;;;14.28;100.00;102761.06;10324549;28;20039;-65
2022/07/07 21:50:17;;;;;;;8.73;1.98;;;;;;;14.30;100.00;102756.13;10323961;28;20034;-63
2022/07/07 21:55:18;;;;;;;8.48;1.58;;;;;;;14.27;100.00;102767.66;10305455;28;20211;-64
2022/07/07 22:00:18;;;;;;;11.48;1.63;;;;;;;14.28;100.00;102769.38;10325211;28;20042;-64
2022/07/07 22:10:38;;;;;;;11.38;2.13;;;;;;;14.26;100.00;102777.06;10363725;28;20053;-66
2022/07/07 22:15:38;;;;;;;12.88;2.00;;;;;;;14.25;100.00;102769.81;10361090;28;20414;-66
2022/07/07 22:20:39;;;;;;;8.27;1.65;;;;;;;14.25;100.00;102780.06;10360033;28;20038;-65
2022/07/07 22:25:39;;;;;;;9.88;1.70;;;;;;;14.18;100.00;102794.00;10357413;28;20038;-65
2022/07/07 22:30:40;;;;;;;10.18;1.55;;;;;;;14.13;100.00;102796.63;10358191;28;20039;-65
2022/07/07 22:35:40;;;;;;;12.60;2.03;;;;;;;14.07;100.00;102805.84;10304755;28;20046;-65
2022/07/07 22:40:41;;;;;;;9.68;1.63;;;;;;;14.00;100.00;102805.09;10320012;28;20046;-66
2022/07/07 22:45:42;;;;;;;6.22;1.70;;;;;;;13.94;100.00;102804.06;10353260;28;20045;-65
2022/07/07 22:50:42;;;;;;;8.85;1.27;;;;;;;13.97;100.00;102811.06;10338297;28;20081;-65
2022/07/07 22:55:43;;;;;;;8.20;1.48;;;;;;;13.95;100.00;102818.75;10325580;28;20564;-65